createdAt,value
2023-05-23T00:01:49.775Z,7.80
2023-05-23T00:06:51.595Z,8.40
2023-05-23T00:11:53.651Z,8.00
2023-05-23T00:16:55.757Z,8.40
2023-05-23T00:21:58.562Z,8.50
2023-05-23T00:27:01.205Z,9.00
2023-05-23T00:32:02.993Z,8.00
2023-05-23T00:37:05.450Z,8.90
2023-05-23T00:42:07.877Z,8.90
2023-05-23T00:47:11.229Z,8.80
2023-05-23T00:52:13.000Z,8.60
2023-05-23T00:57:14.929Z,9.20
2023-05-23T01:02:16.673Z,10.20
2023-05-23T01:07:18.353Z,9.40
2023-05-23T01:12:54.808Z,10.50
2023-05-23T01:18:08.487Z,9.70
2023-05-23T01:23:23.902Z,10.90
2023-05-23T01:28:33.529Z,10.30
2023-05-23T01:33:36.460Z,11.20
2023-05-23T01:38:38.348Z,13.80
2023-05-23T01:43:40.741Z,12.20
2023-05-23T01:48:43.314Z,11.90
2023-05-23T01:53:45.625Z,12.80
2023-05-23T01:58:47.908Z,11.10
2023-05-23T02:03:50.094Z,13.80
2023-05-23T02:08:51.803Z,10.50
2023-05-23T02:13:53.497Z,9.80
2023-05-23T02:18:56.528Z,10.00
2023-05-23T02:23:58.406Z,10.10
2023-05-23T02:29:00.176Z,9.60
2023-05-23T02:34:01.952Z,9.20
2023-05-23T02:39:04.916Z,10.90
2023-05-23T02:44:06.837Z,9.40
2023-05-23T02:49:09.039Z,10.20
2023-05-23T02:54:10.804Z,11.20
2023-05-23T02:59:13.859Z,9.60
2023-05-23T03:04:16.279Z,9.60
2023-05-23T03:09:18.121Z,9.60
2023-05-23T03:14:19.987Z,13.40
2023-05-23T03:19:21.866Z,10.30
2023-05-23T03:24:23.659Z,10.70
2023-05-23T03:29:25.418Z,10.40
2023-05-23T03:34:27.348Z,8.80
2023-05-23T03:39:29.107Z,8.40
2023-05-23T03:44:32.032Z,9.40
2023-05-23T03:49:33.936Z,7.00
2023-05-23T03:54:37.239Z,14.10
2023-05-23T03:59:39.422Z,12.90
2023-05-23T04:09:45.390Z,17.40
2023-05-23T04:14:48.639Z,19.20
2023-05-23T04:19:51.618Z,15.90
2023-05-23T04:24:53.835Z,15.80
2023-05-23T04:29:58.278Z,12.40
2023-05-23T04:35:02.307Z,14.90
2023-05-23T04:40:07.370Z,10.90
2023-05-23T04:45:21.682Z,10.70
2023-05-23T04:50:36.082Z,9.00
2023-05-23T04:55:39.237Z,9.30
2023-05-23T05:00:45.565Z,8.10
2023-05-23T05:05:49.260Z,7.90
2023-05-23T05:10:51.266Z,7.90
2023-05-23T05:15:54.908Z,8.10
2023-05-23T05:20:58.701Z,8.80
2023-05-23T05:26:00.852Z,9.30
2023-05-23T05:31:05.227Z,9.10
2023-05-23T05:36:09.321Z,7.20
2023-05-23T05:41:11.601Z,9.10
2023-05-23T05:46:21.730Z,9.30
2023-05-23T05:56:27.956Z,9.30
2023-05-23T06:01:30.936Z,17.40
2023-05-23T06:06:33.030Z,10.10
2023-05-23T06:11:35.314Z,9.90
2023-05-23T06:16:37.343Z,10.00
2023-05-23T06:21:39.559Z,8.80
2023-05-23T06:26:42.072Z,9.30
2023-05-23T06:31:44.110Z,9.50
2023-05-23T06:36:46.994Z,9.40
2023-05-23T06:41:48.813Z,14.50
2023-05-23T06:46:50.606Z,8.50
2023-05-23T06:51:52.699Z,10.50
2023-05-23T06:56:54.599Z,9.20
2023-05-23T07:01:56.621Z,8.00
2023-05-23T07:06:59.801Z,8.10
2023-05-23T07:12:02.529Z,9.60
2023-05-23T07:17:04.834Z,7.60
2023-05-23T07:22:08.467Z,8.20
2023-05-23T07:27:13.637Z,8.20
2023-05-23T07:32:15.660Z,8.80
2023-05-23T07:37:18.869Z,8.60
2023-05-23T07:47:24.348Z,11.10
2023-05-23T07:52:26.646Z,9.30
2023-05-23T07:57:29.352Z,10.10
2023-05-23T08:02:31.532Z,9.30
2023-05-23T08:07:33.531Z,8.90
2023-05-23T08:12:37.790Z,9.00
2023-05-23T08:17:46.452Z,8.50
2023-05-23T08:22:48.314Z,6.90
2023-05-23T08:27:50.364Z,6.60
2023-05-23T08:33:09.750Z,7.30
2023-05-23T08:38:12.254Z,7.60
2023-05-23T08:43:22.906Z,5.90
2023-05-23T08:48:27.067Z,5.90
2023-05-23T08:53:32.157Z,6.30
2023-05-23T08:58:42.160Z,6.10
2023-05-23T09:03:44.634Z,5.80
2023-05-23T09:08:57.161Z,5.20
2023-05-23T09:13:59.137Z,8.10
2023-05-23T09:19:11.505Z,25.60
2023-05-23T09:24:13.644Z,6.70
2023-05-23T09:29:19.934Z,5.30
2023-05-23T09:34:21.774Z,6.40
2023-05-23T09:39:24.872Z,5.70
2023-05-23T09:44:26.812Z,5.40
2023-05-23T09:49:28.660Z,6.10
2023-05-23T09:54:30.745Z,5.70
2023-05-23T09:59:38.589Z,8.40
2023-05-23T10:04:41.807Z,6.80
2023-05-23T10:09:52.269Z,6.80
2023-05-23T10:14:58.222Z,6.40
2023-05-23T10:20:12.329Z,5.80
2023-05-23T10:25:15.547Z,6.80
2023-05-23T10:30:18.107Z,6.20
2023-05-23T10:35:48.021Z,5.90
2023-05-23T10:40:55.518Z,5.60
2023-05-23T10:45:57.744Z,5.70
2023-05-23T10:51:14.776Z,5.90
2023-05-23T10:56:24.330Z,5.50
2023-05-23T11:01:27.363Z,4.90
2023-05-23T11:06:33.895Z,5.10
2023-05-23T11:11:53.356Z,5.40
2023-05-23T11:16:55.127Z,5.00
2023-05-23T11:22:06.162Z,4.80
2023-05-23T11:27:12.504Z,5.00
2023-05-23T11:32:17.406Z,5.00
2023-05-23T11:37:20.999Z,7.50
2023-05-23T11:42:24.123Z,6.00
2023-05-23T11:47:26.101Z,5.00
2023-05-23T11:57:34.289Z,4.70
2023-05-23T12:02:43.369Z,5.10
2023-05-23T12:07:49.737Z,4.80
2023-05-23T12:12:52.111Z,5.70
2023-05-23T12:17:55.882Z,6.40
2023-05-23T12:22:57.748Z,5.80
2023-05-23T12:28:00.569Z,6.60
2023-05-23T12:33:08.551Z,7.80
2023-05-23T12:38:14.769Z,6.20
2023-05-23T12:43:16.699Z,6.20
2023-05-23T12:48:18.498Z,7.20
2023-05-23T12:53:20.430Z,8.20
2023-05-23T12:58:22.393Z,7.60
2023-05-23T13:03:25.017Z,8.60
2023-05-23T13:08:30.156Z,8.50
2023-05-23T13:13:34.886Z,8.10
2023-05-23T13:18:38.138Z,7.20
2023-05-23T13:24:04.485Z,7.20
2023-05-23T13:29:06.357Z,4.80
2023-05-23T13:34:08.055Z,4.50
2023-05-23T13:39:09.715Z,3.90
2023-05-23T13:44:11.438Z,4.50
2023-05-23T13:49:13.222Z,3.50
2023-05-23T13:54:15.088Z,5.60
2023-05-23T13:59:21.145Z,7.60
2023-05-23T14:04:23.329Z,8.50
2023-05-23T14:09:25.247Z,5.90
2023-05-23T14:14:27.105Z,6.20
2023-05-23T14:19:29.204Z,5.30
2023-05-23T14:24:31.127Z,4.30
2023-05-23T14:29:33.283Z,4.30
2023-05-23T14:34:36.109Z,5.40
2023-05-23T14:39:37.994Z,6.30
2023-05-23T14:44:39.729Z,6.10
2023-05-23T14:49:41.629Z,7.40
2023-05-23T14:54:46.367Z,6.90
2023-05-23T14:59:48.509Z,6.60
2023-05-23T15:04:50.325Z,6.80
2023-05-23T15:09:52.636Z,6.30
2023-05-23T15:15:02.828Z,6.30
2023-05-23T15:20:07.249Z,6.40
2023-05-23T15:25:10.711Z,5.50
2023-05-23T15:30:13.323Z,5.70
2023-05-23T15:35:21.677Z,5.40
2023-05-23T15:40:23.465Z,5.90
2023-05-23T15:45:25.361Z,4.90
2023-05-23T15:50:27.077Z,5.50
2023-05-23T15:55:28.877Z,5.20
2023-05-23T16:00:30.665Z,5.40
2023-05-23T16:05:32.395Z,4.80
2023-05-23T16:10:34.106Z,5.00
2023-05-23T16:15:35.808Z,4.00
2023-05-23T16:20:37.612Z,4.00
2023-05-23T16:25:39.613Z,3.80
2023-05-23T16:30:41.414Z,4.30
2023-05-23T16:35:43.309Z,4.30
2023-05-23T16:40:45.454Z,4.00
2023-05-23T16:45:47.526Z,5.10
2023-05-23T16:50:49.569Z,4.90
2023-05-23T16:55:51.378Z,5.80
2023-05-23T17:00:53.527Z,5.90
2023-05-23T17:05:56.029Z,6.10
2023-05-23T17:10:57.782Z,6.30
2023-05-23T17:15:59.535Z,6.60
2023-05-23T17:21:01.527Z,7.10
2023-05-23T17:26:03.283Z,6.80
2023-05-23T17:31:05.144Z,6.90
2023-05-23T17:36:07.003Z,6.90
2023-05-23T17:41:08.726Z,7.40
2023-05-23T17:46:10.799Z,7.50
2023-05-23T17:51:13.045Z,8.80
2023-05-23T17:56:14.855Z,8.00
2023-05-23T18:01:16.878Z,8.80
2023-05-23T18:06:18.931Z,8.80
2023-05-23T18:11:22.184Z,9.30
2023-05-23T18:16:23.964Z,10.70
2023-05-23T18:21:26.894Z,9.20
2023-05-23T18:31:30.628Z,10.70
2023-05-23T18:36:33.035Z,10.10
2023-05-23T18:41:34.885Z,10.00
2023-05-23T18:46:36.968Z,9.40
2023-05-23T18:51:38.935Z,9.00
2023-05-23T18:56:40.676Z,9.00
2023-05-23T19:01:42.703Z,11.20
2023-05-23T19:06:45.682Z,11.70
2023-05-23T19:11:47.410Z,10.60
2023-05-23T19:16:49.493Z,10.40
2023-05-23T19:21:51.503Z,10.40
2023-05-23T19:26:53.953Z,10.10
2023-05-23T19:31:55.910Z,11.50
2023-05-23T19:36:58.054Z,11.50
2023-05-23T19:41:59.795Z,12.60
2023-05-23T19:47:01.501Z,12.40
2023-05-23T19:52:03.818Z,11.10
2023-05-23T19:57:05.922Z,9.90
2023-05-23T20:02:07.780Z,10.50
2023-05-23T20:07:10.007Z,10.10
2023-05-23T20:12:11.846Z,10.80
2023-05-23T20:17:13.750Z,9.50
2023-05-23T20:22:15.999Z,9.90
2023-05-23T20:27:17.884Z,9.80
2023-05-23T20:32:19.611Z,11.30
2023-05-23T20:37:21.555Z,12.50
2023-05-23T20:42:23.433Z,12.80
2023-05-23T20:47:25.868Z,12.00
2023-05-23T20:52:27.865Z,10.90
2023-05-23T20:57:30.222Z,11.00
2023-05-23T21:02:32.356Z,11.60
2023-05-23T21:07:35.438Z,10.20
2023-05-23T21:12:37.948Z,9.30
2023-05-23T21:17:42.720Z,8.90
2023-05-23T21:22:44.457Z,7.80
2023-05-23T21:27:46.226Z,8.00
2023-05-23T21:32:47.939Z,8.50
2023-05-23T21:37:49.845Z,9.50
2023-05-23T21:42:52.280Z,8.30
2023-05-23T21:47:55.076Z,8.30
2023-05-23T21:52:58.415Z,8.30
2023-05-23T21:58:00.183Z,10.10
2023-05-23T22:03:02.093Z,9.20
2023-05-23T22:08:04.095Z,10.90
2023-05-23T22:13:07.450Z,10.20
2023-05-23T22:18:09.166Z,8.10
2023-05-23T22:23:16.593Z,10.00
2023-05-23T22:28:18.327Z,9.80
2023-05-23T22:33:20.185Z,10.50
2023-05-23T22:38:21.966Z,10.20
2023-05-23T22:43:23.937Z,9.50
2023-05-23T22:48:26.100Z,9.80
2023-05-23T22:53:28.847Z,9.80
2023-05-23T22:58:30.688Z,10.70
2023-05-23T23:03:32.689Z,11.00
2023-05-23T23:08:36.098Z,10.30
2023-05-23T23:13:42.049Z,9.80
2023-05-23T23:18:43.804Z,10.10
2023-05-23T23:23:45.538Z,9.60
2023-05-23T23:28:47.441Z,12.70
2023-05-23T23:33:49.190Z,12.20
2023-05-23T23:38:51.628Z,11.90
2023-05-23T23:43:54.501Z,10.90
2023-05-23T23:48:58.693Z,11.40
2023-05-23T23:54:00.658Z,12.10
2023-05-23T23:59:02.451Z,11.90
